Time;durP1;ratioP1;P1;durP2;ratioP2;P2;SDS_P1;SDS_P2;PMS_P1;PMS_P2;Temp;Humidity;BMP_temperature;BMP_pressure;BME280_temperature;BME280_humidity;BME280_pressure;Samples;Min_cycle;Max_cycle;Signal;HPM_P1;HPM_P2
2022/03/05 00:02:25;;;;;;;37.27;15.00;;;;;;;;;;4994403;28;20418;-47
2022/03/05 00:04:52;;;;;;;38.80;16.87;;;;;;;;;;4994217;28;20460;-46
2022/03/05 00:07:21;;;;;;;40.55;17.38;;;;;;;;;;4994175;28;20410;-47
2022/03/05 00:09:47;;;;;;;39.55;16.65;;;;;;;;;;4994128;28;20637;-48
2022/03/05 00:12:13;;;;;;;40.17;16.40;;;;;;;;;;4994033;28;20208;-51
2022/03/05 00:14:39;;;;;;;37.07;15.10;;;;;;;;;;4994154;28;20415;-46
2022/03/05 00:17:05;;;;;;;33.73;15.90;;;;;;;;;;4994197;28;20404;-46
2022/03/05 00:19:31;;;;;;;43.03;18.52;;;;;;;;;;4993911;28;20476;-49
2022/03/05 00:21:59;;;;;;;36.43;16.77;;;;;;;;;;4994111;28;20211;-47
2022/03/05 00:24:25;;;;;;;39.15;17.40;;;;;;;;;;4994156;28;21063;-46
2022/03/05 00:26:51;;;;;;;35.45;17.73;;;;;;;;;;4994025;28;20565;-46
2022/03/05 00:29:17;;;;;;;32.57;15.73;;;;;;;;;;4993770;28;20188;-46
2022/03/05 00:31:43;;;;;;;37.27;16.10;;;;;;;;;;4993854;28;20824;-48
2022/03/05 00:34:09;;;;;;;34.50;15.33;;;;;;;;;;4993789;28;20776;-47
2022/03/05 00:36:36;;;;;;;37.73;15.97;;;;;;;;;;4993605;28;20531;-47
2022/03/05 00:39:02;;;;;;;34.47;15.15;;;;;;;;;;4992919;28;20428;-48
2022/03/05 00:41:27;;;;;;;44.80;17.37;;;;;;;;;;4993658;28;20175;-51
2022/03/05 00:43:53;;;;;;;33.33;15.93;;;;;;;;;;4993501;28;21026;-49
2022/03/05 00:46:19;;;;;;;38.20;16.60;;;;;;;;;;4991826;28;20443;-48
2022/03/05 00:48:45;;;;;;;40.30;16.10;;;;;;;;;;4991903;28;20423;-46
2022/03/05 00:51:11;;;;;;;44.70;16.30;;;;;;;;;;4992391;28;20428;-47
2022/03/05 00:53:37;;;;;;;45.15;18.20;;;;;;;;;;4993442;28;20496;-47
2022/03/05 00:56:03;;;;;;;44.60;17.00;;;;;;;;;;4993399;28;20180;-47
2022/03/05 00:58:30;;;;;;;41.22;17.13;;;;;;;;;;4993001;28;20195;-48
2022/03/05 01:00:56;;;;;;;46.15;17.45;;;;;;;;;;4993248;28;20554;-47
2022/03/05 01:03:22;;;;;;;35.00;15.80;;;;;;;;;;4993305;28;20238;-47
2022/03/05 01:05:48;;;;;;;40.10;16.60;;;;;;;;;;4993319;28;20712;-48
2022/03/05 01:08:14;;;;;;;44.85;19.33;;;;;;;;;;4992974;28;20910;-47
2022/03/05 01:10:40;;;;;;;42.97;18.23;;;;;;;;;;4993026;28;20180;-48
2022/03/05 01:13:06;;;;;;;32.42;15.73;;;;;;;;;;4993058;28;20587;-50
2022/03/05 01:15:32;;;;;;;38.70;17.50;;;;;;;;;;4993044;28;20180;-47
2022/03/05 01:17:58;;;;;;;38.43;17.00;;;;;;;;;;4992859;28;20540;-47
2022/03/05 01:20:24;;;;;;;38.08;17.75;;;;;;;;;;4992871;28;20547;-46
2022/03/05 01:22:50;;;;;;;40.03;16.03;;;;;;;;;;4992835;28;20259;-47
2022/03/05 01:25:17;;;;;;;46.72;16.00;;;;;;;;;;4992933;28;20452;-47
2022/03/05 01:27:43;;;;;;;35.70;15.10;;;;;;;;;;4992739;28;20215;-56
2022/03/05 01:30:09;;;;;;;36.70;15.50;;;;;;;;;;4993215;28;20189;-48
2022/03/05 01:32:35;;;;;;;41.97;17.58;;;;;;;;;;4992629;28;20404;-47
2022/03/05 01:35:01;;;;;;;29.33;14.57;;;;;;;;;;4992882;28;20173;-48
2022/03/05 01:37:27;;;;;;;37.83;16.03;;;;;;;;;;4992833;28;20554;-50
2022/03/05 01:39:52;;;;;;;44.23;17.20;;;;;;;;;;4992455;28;20819;-47
2022/03/05 01:42:20;;;;;;;40.10;17.80;;;;;;;;;;4992572;28;20417;-46
2022/03/05 01:44:46;;;;;;;41.65;15.43;;;;;;;;;;4992427;28;20452;-48
2022/03/05 01:47:12;;;;;;;38.97;17.50;;;;;;;;;;4992561;28;20177;-50
2022/03/05 01:49:38;;;;;;;37.90;17.08;;;;;;;;;;4991735;28;20416;-49
2022/03/05 01:52:04;;;;;;;33.53;15.30;;;;;;;;;;4992621;28;20207;-46
2022/03/05 01:54:30;;;;;;;42.33;17.08;;;;;;;;;;4992781;28;20282;-46
2022/03/05 01:56:57;;;;;;;52.30;16.70;;;;;;;;;;4992450;28;20172;-46
2022/03/05 01:59:23;;;;;;;38.15;15.75;;;;;;;;;;4992099;28;20235;-49
2022/03/05 02:01:49;;;;;;;43.60;17.48;;;;;;;;;;4992062;28;20625;-46
2022/03/05 02:04:15;;;;;;;45.28;15.75;;;;;;;;;;4992154;28;20223;-47
2022/03/05 02:06:41;;;;;;;28.92;15.27;;;;;;;;;;4992080;28;20633;-48
2022/03/05 02:09:15;;;;;;;37.83;16.75;;;;;;;;;;4991297;28;20197;-50
2022/03/05 02:11:41;;;;;;;44.00;16.27;;;;;;;;;;4992115;28;20173;-49
2022/03/05 02:14:08;;;;;;;39.40;15.55;;;;;;;;;;4992074;28;20173;-47
2022/03/05 02:16:34;;;;;;;33.20;15.57;;;;;;;;;;4992180;28;20165;-48
2022/03/05 02:19:00;;;;;;;41.20;16.43;;;;;;;;;;4991677;28;20279;-50
2022/03/05 02:21:27;;;;;;;40.70;15.07;;;;;;;;;;4991883;28;20405;-47
2022/03/05 02:23:53;;;;;;;37.17;15.02;;;;;;;;;;4991876;28;20451;-49
2022/03/05 02:26:20;;;;;;;33.67;14.93;;;;;;;;;;4991849;28;20532;-46
2022/03/05 02:28:46;;;;;;;36.42;15.60;;;;;;;;;;4991534;28;20188;-47
2022/03/05 02:31:12;;;;;;;34.67;15.88;;;;;;;;;;4991747;28;20252;-47
2022/03/05 02:33:38;;;;;;;37.75;15.68;;;;;;;;;;4991635;28;20169;-47
2022/03/05 02:36:05;;;;;;;33.72;14.52;;;;;;;;;;4991651;28;20219;-47
2022/03/05 02:38:31;;;;;;;40.55;16.55;;;;;;;;;;4991430;28;20197;-47
2022/03/05 02:40:56;;;;;;;40.53;13.80;;;;;;;;;;4991652;28;20173;-47
2022/03/05 02:43:23;;;;;;;38.27;15.83;;;;;;;;;;4991565;28;20177;-50
2022/03/05 02:45:50;;;;;;;35.83;14.88;;;;;;;;;;4991585;28;20880;-49
2022/03/05 02:48:16;;;;;;;54.55;15.13;;;;;;;;;;4991339;28;20172;-47
2022/03/05 02:50:43;;;;;;;33.17;15.13;;;;;;;;;;4991328;28;20211;-47
2022/03/05 02:53:09;;;;;;;35.83;13.60;;;;;;;;;;4991602;28;20201;-46
2022/03/05 02:55:35;;;;;;;35.30;14.98;;;;;;;;;;4991487;28;20184;-48
2022/03/05 02:58:01;;;;;;;27.73;13.25;;;;;;;;;;4991318;28;20165;-47
2022/03/05 03:00:28;;;;;;;46.25;16.10;;;;;;;;;;4991773;28;20535;-47
2022/03/05 03:02:54;;;;;;;35.42;15.00;;;;;;;;;;4995011;28;20177;-46
2022/03/05 03:05:21;;;;;;;32.90;14.73;;;;;;;;;;4995385;28;20193;-47
2022/03/05 03:07:48;;;;;;;43.10;17.13;;;;;;;;;;4995242;28;20408;-48
2022/03/05 03:10:15;;;;;;;39.17;15.80;;;;;;;;;;4995407;28;20205;-48
2022/03/05 03:12:41;;;;;;;33.83;13.73;;;;;;;;;;4995427;28;20580;-48
2022/03/05 03:15:08;;;;;;;40.28;16.80;;;;;;;;;;4995387;28;20177;-46
2022/03/05 03:17:41;;;;;;;37.95;15.38;;;;;;;;;;4995061;28;20177;-48
2022/03/05 03:20:07;;;;;;;38.28;15.65;;;;;;;;;;4994466;28;20679;-47
2022/03/05 03:22:33;;;;;;;32.35;14.27;;;;;;;;;;4994978;28;20183;-47
2022/03/05 03:24:59;;;;;;;38.77;15.30;;;;;;;;;;4995328;28;20303;-47
2022/03/05 03:27:25;;;;;;;42.92;14.63;;;;;;;;;;4995244;28;20487;-47
2022/03/05 03:29:51;;;;;;;35.33;15.30;;;;;;;;;;4994955;28;20725;-47
2022/03/05 03:32:17;;;;;;;39.33;15.10;;;;;;;;;;4995008;28;20474;-49
2022/03/05 03:34:43;;;;;;;32.47;13.50;;;;;;;;;;4995274;28;20412;-50
2022/03/05 03:37:09;;;;;;;40.40;15.15;;;;;;;;;;4995260;28;20594;-46
2022/03/05 03:39:35;;;;;;;27.47;13.00;;;;;;;;;;4994900;28;20566;-47
2022/03/05 03:42:01;;;;;;;40.10;14.98;;;;;;;;;;4995089;28;20408;-46
2022/03/05 03:44:27;;;;;;;46.03;14.20;;;;;;;;;;4994915;28;20661;-46
2022/03/05 03:46:53;;;;;;;36.30;15.20;;;;;;;;;;4994777;28;20419;-46
2022/03/05 03:49:19;;;;;;;35.60;16.23;;;;;;;;;;4994485;28;20772;-46
2022/03/05 03:51:45;;;;;;;37.60;17.23;;;;;;;;;;4994622;28;20573;-47
2022/03/05 03:54:11;;;;;;;34.47;14.13;;;;;;;;;;4994861;28;20169;-47
2022/03/05 03:56:37;;;;;;;39.13;15.10;;;;;;;;;;4994625;28;20880;-49
2022/03/05 03:59:03;;;;;;;41.13;15.80;;;;;;;;;;4994166;28;20428;-46
2022/03/05 04:01:29;;;;;;;36.67;16.30;;;;;;;;;;4994461;28;20412;-50
2022/03/05 04:03:55;;;;;;;39.87;16.90;;;;;;;;;;4994323;28;20220;-47
2022/03/05 04:06:21;;;;;;;39.37;15.73;;;;;;;;;;4994537;28;20483;-46
2022/03/05 04:08:47;;;;;;;34.37;15.37;;;;;;;;;;4994211;28;20936;-46
2022/03/05 04:11:16;;;;;;;33.65;14.40;;;;;;;;;;4994431;28;20947;-46
2022/03/05 04:13:44;;;;;;;28.67;15.02;;;;;;;;;;4993677;28;20179;-48
2022/03/05 04:16:10;;;;;;;30.20;13.90;;;;;;;;;;4994318;28;20645;-47
2022/03/05 04:18:36;;;;;;;34.92;13.93;;;;;;;;;;4993965;28;20204;-49
2022/03/05 04:21:04;;;;;;;36.65;13.02;;;;;;;;;;4994286;28;20169;-46
2022/03/05 04:23:30;;;;;;;35.53;12.77;;;;;;;;;;4994057;28;20172;-47
2022/03/05 04:25:56;;;;;;;28.63;14.67;;;;;;;;;;4994098;28;20173;-48
2022/03/05 04:28:22;;;;;;;40.35;14.65;;;;;;;;;;4993710;28;20417;-50
2022/03/05 04:30:48;;;;;;;43.50;14.70;;;;;;;;;;4994115;28;20169;-46
2022/03/05 04:33:14;;;;;;;35.77;15.80;;;;;;;;;;4993759;28;20399;-47
2022/03/05 04:35:40;;;;;;;36.00;12.70;;;;;;;;;;4993897;28;20408;-47
2022/03/05 04:38:06;;;;;;;34.58;13.13;;;;;;;;;;4993621;28;20747;-47
2022/03/05 04:40:32;;;;;;;30.83;12.50;;;;;;;;;;4993793;28;20180;-47
2022/03/05 04:42:59;;;;;;;26.65;13.65;;;;;;;;;;4994175;28;20405;-47
2022/03/05 04:45:26;;;;;;;32.90;15.15;;;;;;;;;;4993514;28;20189;-46
2022/03/05 04:47:52;;;;;;;32.45;13.40;;;;;;;;;;4993455;28;20693;-50
2022/03/05 04:50:18;;;;;;;35.33;13.70;;;;;;;;;;4993576;28;20219;-50
2022/03/05 04:52:44;;;;;;;25.50;13.53;;;;;;;;;;4993453;28;20280;-47
2022/03/05 04:55:11;;;;;;;30.60;13.03;;;;;;;;;;4993529;28;20483;-46
2022/03/05 04:57:37;;;;;;;37.05;13.23;;;;;;;;;;4993524;28;20413;-46
2022/03/05 05:00:04;;;;;;;40.05;15.77;;;;;;;;;;4993120;28;20197;-47
2022/03/05 05:02:30;;;;;;;30.77;14.30;;;;;;;;;;4993337;28;20219;-46
2022/03/05 05:04:56;;;;;;;31.97;14.07;;;;;;;;;;4993471;28;20201;-47
2022/03/05 05:07:22;;;;;;;38.20;14.03;;;;;;;;;;4993371;28;20431;-49
2022/03/05 05:09:48;;;;;;;31.33;12.83;;;;;;;;;;4993025;28;20762;-49
2022/03/05 05:12:14;;;;;;;28.40;11.70;;;;;;;;;;4993132;28;20816;-46
2022/03/05 05:14:40;;;;;;;27.93;13.13;;;;;;;;;;4993445;28;20412;-46
2022/03/05 05:17:06;;;;;;;32.38;13.52;;;;;;;;;;4993325;28;20409;-47
2022/03/05 05:19:32;;;;;;;33.22;15.00;;;;;;;;;;4993098;28;20192;-47
2022/03/05 05:21:59;;;;;;;28.23;12.67;;;;;;;;;;4993313;28;20268;-47
2022/03/05 05:24:26;;;;;;;37.95;13.27;;;;;;;;;;4992223;28;20459;-48
2022/03/05 05:26:52;;;;;;;38.58;14.15;;;;;;;;;;4992974;28;20180;-47
2022/03/05 05:29:18;;;;;;;33.47;14.00;;;;;;;;;;4992814;28;20654;-46
2022/03/05 05:31:44;;;;;;;37.43;13.50;;;;;;;;;;4993065;28;20192;-47
2022/03/05 05:34:10;;;;;;;28.85;12.18;;;;;;;;;;4992856;28;20523;-48
2022/03/05 05:36:39;;;;;;;40.40;13.47;;;;;;;;;;4992914;28;20204;-50
2022/03/05 05:39:06;;;;;;;41.50;15.40;;;;;;;;;;4992275;28;20420;-47
2022/03/05 05:41:32;;;;;;;33.60;14.90;;;;;;;;;;4992711;28;20165;-47
2022/03/05 05:43:58;;;;;;;39.13;14.57;;;;;;;;;;4992518;28;20199;-46
2022/03/05 05:46:24;;;;;;;29.37;12.63;;;;;;;;;;4992581;28;20535;-47
2022/03/05 05:48:50;;;;;;;29.73;12.75;;;;;;;;;;4992282;28;20455;-48
2022/03/05 05:51:16;;;;;;;31.23;12.47;;;;;;;;;;4992445;28;20268;-47
2022/03/05 05:53:41;;;;;;;28.23;12.52;;;;;;;;;;4992370;28;20404;-47
2022/03/05 05:56:08;;;;;;;35.13;14.77;;;;;;;;;;4992380;28;20711;-46
2022/03/05 05:58:34;;;;;;;42.97;13.27;;;;;;;;;;4992095;28;20426;-47
2022/03/05 06:01:00;;;;;;;27.30;11.80;;;;;;;;;;4992280;28;20177;-47
2022/03/05 06:03:27;;;;;;;39.30;12.27;;;;;;;;;;4992098;28;20400;-47
2022/03/05 06:05:53;;;;;;;36.03;12.95;;;;;;;;;;4992266;28;20744;-47
2022/03/05 06:08:19;;;;;;;36.78;15.52;;;;;;;;;;4991801;28;20546;-47
2022/03/05 06:10:45;;;;;;;33.43;13.90;;;;;;;;;;4992217;28;20161;-47
2022/03/05 06:13:11;;;;;;;32.17;13.90;;;;;;;;;;4991933;28;20491;-47
2022/03/05 06:15:37;;;;;;;49.23;13.30;;;;;;;;;;4992046;28;20400;-49
2022/03/05 06:18:03;;;;;;;39.70;12.47;;;;;;;;;;4991759;28;20408;-47
2022/03/05 06:20:29;;;;;;;35.88;12.73;;;;;;;;;;4991930;28;20440;-47
2022/03/05 06:22:55;;;;;;;37.03;12.48;;;;;;;;;;4991747;28;20180;-48
2022/03/05 06:25:21;;;;;;;32.60;13.53;;;;;;;;;;4991847;28;20217;-49
2022/03/05 06:27:47;;;;;;;34.35;12.88;;;;;;;;;;4991623;28;20405;-49
2022/03/05 06:30:13;;;;;;;31.80;13.52;;;;;;;;;;4991699;28;20200;-49
2022/03/05 06:32:39;;;;;;;40.55;15.00;;;;;;;;;;4991830;28;20180;-50
2022/03/05 06:35:06;;;;;;;30.00;12.63;;;;;;;;;;4991672;28;20181;-47
2022/03/05 06:37:33;;;;;;;28.13;13.05;;;;;;;;;;4991818;28;20439;-50
2022/03/05 06:39:59;;;;;;;30.23;12.65;;;;;;;;;;4991534;28;20193;-47
2022/03/05 06:42:26;;;;;;;33.00;14.45;;;;;;;;;;4992166;28;20201;-47
2022/03/05 06:44:52;;;;;;;29.95;12.10;;;;;;;;;;4991821;28;20276;-46
2022/03/05 06:47:18;;;;;;;37.10;13.40;;;;;;;;;;4992025;28;20679;-47
2022/03/05 06:49:44;;;;;;;33.03;14.02;;;;;;;;;;4991797;28;20412;-47
2022/03/05 06:52:10;;;;;;;36.33;13.63;;;;;;;;;;4991859;28;20189;-47
2022/03/05 06:54:37;;;;;;;31.50;12.75;;;;;;;;;;4991872;28;20165;-47
2022/03/05 06:57:03;;;;;;;28.77;12.63;;;;;;;;;;4991421;28;20177;-47
2022/03/05 06:59:29;;;;;;;25.38;11.98;;;;;;;;;;4991024;28;20731;-47
2022/03/05 07:01:55;;;;;;;26.35;12.75;;;;;;;;;;4990887;28;20588;-47
2022/03/05 07:04:21;;;;;;;26.87;13.70;;;;;;;;;;4990931;28;20204;-47
2022/03/05 07:06:47;;;;;;;31.50;12.45;;;;;;;;;;4990871;28;20401;-47
2022/03/05 07:09:14;;;;;;;25.98;13.60;;;;;;;;;;4991000;28;20207;-47
2022/03/05 07:11:41;;;;;;;29.10;11.85;;;;;;;;;;4990771;28;20521;-47
2022/03/05 07:14:07;;;;;;;30.42;12.85;;;;;;;;;;4990951;28;20172;-49
2022/03/05 07:16:33;;;;;;;30.30;12.07;;;;;;;;;;4990847;28;20256;-47
2022/03/05 07:18:59;;;;;;;29.07;12.53;;;;;;;;;;4990390;28;20212;-47
2022/03/05 07:21:25;;;;;;;28.87;13.67;;;;;;;;;;4990958;28;20885;-50
2022/03/05 07:23:51;;;;;;;24.37;13.23;;;;;;;;;;4991222;28;20459;-47
2022/03/05 07:26:17;;;;;;;29.77;14.03;;;;;;;;;;4991342;28;20395;-47
2022/03/05 07:28:44;;;;;;;34.13;14.93;;;;;;;;;;4990912;28;20453;-47
2022/03/05 07:31:10;;;;;;;26.57;12.77;;;;;;;;;;4991660;28;20396;-49
2022/03/05 07:33:36;;;;;;;26.77;12.30;;;;;;;;;;4991355;28;20769;-49
2022/03/05 07:36:04;;;;;;;31.90;13.63;;;;;;;;;;4991145;28;20633;-50
2022/03/05 07:38:30;;;;;;;30.33;12.87;;;;;;;;;;4991077;28;20633;-50
2022/03/05 07:40:56;;;;;;;32.17;14.33;;;;;;;;;;4991022;28;20488;-50
2022/03/05 07:43:22;;;;;;;39.23;15.83;;;;;;;;;;4991062;28;20404;-50
2022/03/05 07:45:48;;;;;;;27.47;14.13;;;;;;;;;;4991031;28;20448;-50
2022/03/05 07:48:14;;;;;;;31.30;15.23;;;;;;;;;;4993074;28;20789;-50
2022/03/05 07:50:41;;;;;;;29.23;14.47;;;;;;;;;;4994711;28;20492;-50
2022/03/05 07:53:07;;;;;;;30.43;16.50;;;;;;;;;;4994565;28;20455;-50
2022/03/05 07:55:33;;;;;;;32.90;14.83;;;;;;;;;;4994649;28;20861;-51
2022/03/05 07:57:59;;;;;;;29.70;15.03;;;;;;;;;;4994375;28;20400;-51
2022/03/05 08:00:25;;;;;;;31.40;14.20;;;;;;;;;;4994438;28;20451;-51
2022/03/05 08:02:51;;;;;;;32.03;14.90;;;;;;;;;;4994438;28;20457;-50
2022/03/05 08:05:17;;;;;;;27.67;15.13;;;;;;;;;;4994430;28;20462;-50
2022/03/05 08:07:43;;;;;;;30.37;16.23;;;;;;;;;;4994245;28;20400;-50
2022/03/05 08:10:09;;;;;;;27.87;15.30;;;;;;;;;;4994255;28;20421;-50
2022/03/05 08:12:36;;;;;;;26.07;14.67;;;;;;;;;;4994061;28;20438;-50
2022/03/05 08:15:02;;;;;;;25.63;14.27;;;;;;;;;;4994334;28;20921;-49
2022/03/05 08:17:28;;;;;;;24.03;13.53;;;;;;;;;;4994444;28;20956;-50
2022/03/05 08:19:54;;;;;;;30.37;15.03;;;;;;;;;;4994107;28;20461;-51
2022/03/05 08:22:20;;;;;;;25.60;13.10;;;;;;;;;;4994353;28;20461;-51
2022/03/05 08:24:46;;;;;;;27.10;14.87;;;;;;;;;;4994183;28;20959;-50
2022/03/05 08:27:12;;;;;;;27.30;13.30;;;;;;;;;;4994176;28;20401;-51
2022/03/05 08:29:38;;;;;;;28.10;13.40;;;;;;;;;;4993807;28;20548;-50
2022/03/05 08:32:04;;;;;;;22.00;13.00;;;;;;;;;;4993999;28;20537;-50
2022/03/05 08:34:30;;;;;;;24.93;12.93;;;;;;;;;;4994036;28;20874;-50
2022/03/05 08:36:56;;;;;;;29.07;14.90;;;;;;;;;;4993773;28;20406;-49
2022/03/05 08:39:22;;;;;;;28.90;15.43;;;;;;;;;;4993583;28;20451;-51
2022/03/05 08:41:48;;;;;;;27.73;13.07;;;;;;;;;;4993738;28;20884;-51
2022/03/05 08:44:14;;;;;;;23.30;12.33;;;;;;;;;;4993718;28;20502;-49
2022/03/05 08:46:40;;;;;;;30.43;13.17;;;;;;;;;;4993805;28;20410;-51
2022/03/05 08:49:06;;;;;;;22.67;14.00;;;;;;;;;;4992721;28;20491;-50
2022/03/05 08:51:32;;;;;;;22.57;13.00;;;;;;;;;;4993484;28;20919;-51
2022/03/05 08:53:58;;;;;;;20.70;12.40;;;;;;;;;;4993296;28;20472;-50
2022/03/05 08:56:24;;;;;;;23.30;12.47;;;;;;;;;;4993383;28;20455;-50
2022/03/05 08:58:50;;;;;;;19.57;11.63;;;;;;;;;;4992945;28;20450;-49
2022/03/05 09:01:16;;;;;;;24.70;13.50;;;;;;;;;;4993349;28;20761;-50
2022/03/05 09:03:42;;;;;;;25.67;11.07;;;;;;;;;;4993266;28;20431;-50
2022/03/05 09:06:08;;;;;;;24.53;12.27;;;;;;;;;;4993108;28;20421;-50
2022/03/05 09:08:37;;;;;;;23.57;12.20;;;;;;;;;;4992887;28;20475;-49
2022/03/05 09:11:03;;;;;;;25.30;12.77;;;;;;;;;;4993146;28;20413;-51
2022/03/05 09:13:29;;;;;;;22.30;11.47;;;;;;;;;;4992881;28;20439;-51
2022/03/05 09:15:55;;;;;;;23.50;13.07;;;;;;;;;;4993084;28;20445;-51
2022/03/05 09:18:21;;;;;;;21.67;11.30;;;;;;;;;;4992586;28;20410;-51
2022/03/05 09:20:47;;;;;;;23.53;12.83;;;;;;;;;;4992953;28;20403;-50
2022/03/05 09:23:14;;;;;;;22.67;12.33;;;;;;;;;;4993127;28;20910;-51
2022/03/05 09:25:40;;;;;;;27.50;13.43;;;;;;;;;;4992882;28;20443;-51
2022/03/05 09:28:06;;;;;;;17.10;11.47;;;;;;;;;;4992630;28;20397;-51
2022/03/05 09:30:32;;;;;;;23.40;12.93;;;;;;;;;;4992841;28;20380;-51
2022/03/05 09:32:58;;;;;;;23.33;13.07;;;;;;;;;;4992565;28;20369;-50
2022/03/05 09:35:24;;;;;;;20.93;12.30;;;;;;;;;;4992793;28;20941;-51
2022/03/05 09:37:50;;;;;;;23.50;12.77;;;;;;;;;;4992522;28;20995;-50
2022/03/05 09:40:16;;;;;;;21.20;11.83;;;;;;;;;;4993002;28;20431;-50
2022/03/05 09:42:46;;;;;;;19.63;12.70;;;;;;;;;;4992632;28;20391;-52
2022/03/05 09:45:13;;;;;;;21.30;13.50;;;;;;;;;;4992636;28;20904;-51
2022/03/05 09:47:39;;;;;;;20.47;12.70;;;;;;;;;;4992810;28;20410;-50
2022/03/05 09:50:07;;;;;;;24.40;12.77;;;;;;;;;;4992696;28;20410;-51
2022/03/05 09:52:33;;;;;;;25.13;11.27;;;;;;;;;;4992532;28;20429;-51
2022/03/05 09:54:59;;;;;;;19.47;12.80;;;;;;;;;;4992757;28;20463;-51
2022/03/05 09:57:26;;;;;;;20.83;13.73;;;;;;;;;;4992582;28;20442;-52
2022/03/05 09:59:52;;;;;;;18.20;12.30;;;;;;;;;;4991860;28;20520;-52
2022/03/05 10:02:19;;;;;;;20.40;12.30;;;;;;;;;;4992247;28;20850;-51
2022/03/05 10:04:45;;;;;;;20.60;12.70;;;;;;;;;;4992125;28;20435;-51
2022/03/05 10:07:12;;;;;;;20.57;12.70;;;;;;;;;;4992156;28;20492;-51
2022/03/05 10:09:38;;;;;;;19.20;12.23;;;;;;;;;;4991585;28;20422;-51
2022/03/05 10:12:25;;;;;;;20.13;12.97;;;;;;;;;;4991619;28;20438;-50
2022/03/05 10:15:03;;;;;;;21.23;12.90;;;;;;;;;;4992285;28;20828;-52
2022/03/05 10:17:29;;;;;;;20.33;12.40;;;;;;;;;;4990811;28;20484;-51
2022/03/05 10:20:08;;;;;;;18.33;11.70;;;;;;;;;;4991578;28;20433;-52
2022/03/05 10:22:34;;;;;;;18.37;12.07;;;;;;;;;;4991581;28;20491;-52
2022/03/05 10:25:00;;;;;;;19.93;12.43;;;;;;;;;;4991900;28;21042;-51
2022/03/05 10:27:30;;;;;;;21.10;13.27;;;;;;;;;;4991901;28;20401;-51
2022/03/05 10:29:56;;;;;;;16.70;10.77;;;;;;;;;;4991921;28;20589;-52
2022/03/05 10:32:22;;;;;;;19.73;11.30;;;;;;;;;;4991711;28;20396;-52
2022/03/05 10:34:49;;;;;;;21.37;12.60;;;;;;;;;;4991654;28;20436;-51
2022/03/05 10:37:15;;;;;;;18.10;12.03;;;;;;;;;;4992294;28;20816;-52
2022/03/05 10:39:42;;;;;;;15.50;10.23;;;;;;;;;;4991621;28;20433;-52
2022/03/05 10:42:24;;;;;;;19.13;12.57;;;;;;;;;;4991713;28;20415;-52
2022/03/05 10:45:05;;;;;;;18.20;11.70;;;;;;;;;;4972299;28;20469;-52
2022/03/05 10:47:38;;;;;;;17.53;12.10;;;;;;;;;;4972009;28;20407;-51
2022/03/05 10:50:06;;;;;;;17.47;10.80;;;;;;;;;;4972172;28;20436;-52
2022/03/05 10:52:43;;;;;;;15.73;10.73;;;;;;;;;;4972069;28;20518;-51
2022/03/05 10:55:17;;;;;;;17.97;11.97;;;;;;;;;;4972659;28;20409;-50
2022/03/05 10:57:59;;;;;;;17.87;11.10;;;;;;;;;;4971771;28;20493;-50
2022/03/05 11:00:26;;;;;;;16.23;10.87;;;;;;;;;;4971683;28;20442;-51
2022/03/05 11:02:52;;;;;;;18.53;10.77;;;;;;;;;;4972005;28;20404;-52
2022/03/05 11:05:21;;;;;;;16.27;11.13;;;;;;;;;;4971774;28;20956;-51
2022/03/05 11:07:49;;;;;;;14.00;10.20;;;;;;;;;;4971881;28;20921;-51
2022/03/05 11:10:17;;;;;;;15.10;10.97;;;;;;;;;;4972229;28;20481;-51
2022/03/05 11:12:45;;;;;;;15.43;11.60;;;;;;;;;;4972202;28;20399;-51
2022/03/05 11:15:11;;;;;;;16.07;10.80;;;;;;;;;;4972024;28;20501;-51
2022/03/05 11:17:37;;;;;;;13.03;9.70;;;;;;;;;;4972029;28;20756;-52
2022/03/05 11:20:04;;;;;;;14.17;9.43;;;;;;;;;;4971426;28;20449;-51
2022/03/05 11:22:31;;;;;;;16.77;10.73;;;;;;;;;;4972927;28;20889;-52
2022/03/05 11:24:57;;;;;;;18.80;11.23;;;;;;;;;;4975601;28;20829;-52
2022/03/05 11:27:23;;;;;;;14.80;9.97;;;;;;;;;;4975751;28;20424;-51
2022/03/05 11:30:00;;;;;;;16.33;10.80;;;;;;;;;;4975659;28;20425;-52
2022/03/05 11:32:30;;;;;;;12.80;9.60;;;;;;;;;;4975071;28;20404;-51
2022/03/05 11:34:56;;;;;;;14.10;10.43;;;;;;;;;;4975474;28;20409;-51
2022/03/05 11:37:33;;;;;;;13.37;10.17;;;;;;;;;;4975286;28;20416;-52
2022/03/05 11:40:03;;;;;;;15.00;10.23;;;;;;;;;;4975184;28;20554;-51
2022/03/05 11:42:30;;;;;;;20.90;10.07;;;;;;;;;;4976796;28;20440;-52
2022/03/05 11:44:57;;;;;;;12.20;9.40;;;;;;;;;;4994637;28;20463;-50
2022/03/05 11:47:33;;;;;;;14.73;10.00;;;;;;;;;;4994755;28;20407;-51
2022/03/05 11:49:59;;;;;;;15.30;11.13;;;;;;;;;;4994231;28;20458;-51
2022/03/05 11:52:37;;;;;;;17.17;9.63;;;;;;;;;;4994679;28;20470;-52
2022/03/05 11:55:15;;;;;;;14.17;10.30;;;;;;;;;;4994646;28;20418;-52
2022/03/05 11:58:03;;;;;;;14.03;10.40;;;;;;;;;;4994401;28;20427;-50
2022/03/05 12:00:31;;;;;;;13.50;10.03;;;;;;;;;;4994396;28;20941;-52
2022/03/05 12:02:58;;;;;;;13.63;10.00;;;;;;;;;;4994327;28;20494;-52
2022/03/05 12:05:33;;;;;;;17.20;11.17;;;;;;;;;;4994364;28;20463;-52
2022/03/05 12:08:00;;;;;;;14.83;10.57;;;;;;;;;;4994259;28;20415;-51
2022/03/05 12:10:26;;;;;;;15.17;10.17;;;;;;;;;;4994249;28;20515;-51
2022/03/05 12:12:53;;;;;;;15.90;10.50;;;;;;;;;;4994030;28;20411;-52
2022/03/05 12:15:25;;;;;;;17.03;10.90;;;;;;;;;;4993287;28;20416;-51
2022/03/05 12:17:51;;;;;;;13.57;9.63;;;;;;;;;;4994410;28;20407;-52
2022/03/05 12:20:20;;;;;;;15.83;10.77;;;;;;;;;;4993888;28;20490;-51
2022/03/05 12:22:47;;;;;;;15.77;9.80;;;;;;;;;;4994599;28;20409;-51
2022/03/05 12:25:14;;;;;;;15.77;10.10;;;;;;;;;;4994196;28;20498;-51
2022/03/05 12:27:50;;;;;;;14.33;10.00;;;;;;;;;;4994126;28;20421;-50
2022/03/05 12:30:16;;;;;;;18.90;9.90;;;;;;;;;;4993986;28;20426;-51
2022/03/05 12:32:44;;;;;;;13.73;9.73;;;;;;;;;;4993920;28;20415;-52
2022/03/05 12:35:10;;;;;;;13.30;10.10;;;;;;;;;;4993769;28;21016;-52
2022/03/05 12:37:36;;;;;;;16.43;10.33;;;;;;;;;;4993903;28;20495;-52
2022/03/05 12:40:06;;;;;;;15.33;10.33;;;;;;;;;;4993714;28;20758;-52
2022/03/05 12:42:37;;;;;;;16.57;10.93;;;;;;;;;;4993683;28;20473;-51
2022/03/05 12:45:04;;;;;;;19.23;11.00;;;;;;;;;;4994034;28;20451;-52
2022/03/05 12:47:34;;;;;;;17.63;11.10;;;;;;;;;;4993390;28;20431;-52
2022/03/05 12:50:20;;;;;;;12.70;10.00;;;;;;;;;;4993287;28;20554;-51
2022/03/05 12:52:55;;;;;;;14.73;9.80;;;;;;;;;;4993339;28;20518;-52
2022/03/05 12:55:21;;;;;;;16.43;10.00;;;;;;;;;;4993486;28;20420;-51
2022/03/05 12:57:47;;;;;;;13.10;9.40;;;;;;;;;;4993024;28;20439;-51
2022/03/05 13:00:14;;;;;;;16.10;10.70;;;;;;;;;;4993153;28;20436;-51
2022/03/05 13:02:40;;;;;;;13.43;9.37;;;;;;;;;;4993232;28;20497;-52
2022/03/05 13:05:15;;;;;;;15.00;11.47;;;;;;;;;;4993290;28;21094;-51
2022/03/05 13:07:41;;;;;;;14.97;10.30;;;;;;;;;;4993189;28;20419;-50
2022/03/05 13:10:08;;;;;;;15.50;9.70;;;;;;;;;;4993075;28;20432;-52
2022/03/05 13:12:40;;;;;;;13.77;10.27;;;;;;;;;;4992668;28;20416;-51
2022/03/05 13:15:07;;;;;;;13.27;9.90;;;;;;;;;;4993059;28;20408;-52
2022/03/05 13:17:34;;;;;;;14.50;10.70;;;;;;;;;;4993076;28;20415;-52
2022/03/05 13:20:09;;;;;;;11.97;9.37;;;;;;;;;;4992845;28;20428;-52
2022/03/05 13:22:35;;;;;;;14.20;10.57;;;;;;;;;;4992932;28;20411;-51
2022/03/05 13:25:01;;;;;;;11.40;9.00;;;;;;;;;;4992828;28;20872;-52
2022/03/05 13:27:27;;;;;;;11.50;10.00;;;;;;;;;;4993026;28;20810;-51
2022/03/05 13:29:54;;;;;;;14.00;9.70;;;;;;;;;;4993375;28;20424;-50
2022/03/05 13:32:24;;;;;;;13.80;10.13;;;;;;;;;;4992959;28;20411;-50
2022/03/05 13:35:01;;;;;;;12.83;9.70;;;;;;;;;;4992999;28;20401;-49
2022/03/05 13:37:27;;;;;;;12.83;9.00;;;;;;;;;;4992807;28;20440;-52
2022/03/05 13:39:53;;;;;;;15.80;10.17;;;;;;;;;;4992640;28;20680;-51
2022/03/05 13:42:19;;;;;;;14.73;10.50;;;;;;;;;;4992613;28;20404;-49
2022/03/05 13:44:45;;;;;;;14.70;9.23;;;;;;;;;;4991803;28;20459;-49
2022/03/05 13:47:11;;;;;;;12.30;9.37;;;;;;;;;;4992551;28;20404;-50
2022/03/05 13:49:39;;;;;;;10.40;8.63;;;;;;;;;;4992251;28;20784;-50
2022/03/05 13:52:07;;;;;;;16.80;9.87;;;;;;;;;;4992420;28;20435;-50
2022/03/05 13:54:34;;;;;;;13.30;9.87;;;;;;;;;;4992314;28;20411;-52
2022/03/05 13:57:00;;;;;;;17.33;10.00;;;;;;;;;;4992291;28;20426;-49
2022/03/05 13:59:39;;;;;;;11.20;9.20;;;;;;;;;;4991958;28;20439;-50
2022/03/05 14:02:06;;;;;;;14.90;9.03;;;;;;;;;;4991959;28;20411;-51
2022/03/05 14:04:33;;;;;;;14.27;10.00;;;;;;;;;;4992278;28;20460;-50
2022/03/05 14:07:00;;;;;;;14.10;8.67;;;;;;;;;;4992191;28;20419;-50
2022/03/05 14:09:35;;;;;;;14.13;9.63;;;;;;;;;;4991815;28;20420;-50
2022/03/05 14:12:06;;;;;;;13.87;9.43;;;;;;;;;;4991637;28;20400;-49
2022/03/05 14:14:35;;;;;;;15.17;10.00;;;;;;;;;;4992069;28;20412;-50
2022/03/05 14:17:01;;;;;;;11.57;9.27;;;;;;;;;;4992181;28;20400;-51
2022/03/05 14:19:28;;;;;;;10.47;8.20;;;;;;;;;;4991716;28;20838;-50